Latest Weather Observations for Rabbit Flat

IDD60801

Issued at 11:31 am CST Monday 30 March 2015 (issued every 30 minutes, with the page automatically refreshed every 10 minutes)

About weather observations | Map of weather stations | Latest weather observations for NT | Other Formats
Station Details ID: 015666 Name: RABBIT FLAT Lat: -20.18 Lon: 130.01 Height: 340.0 m
Data from the previous 72 hours. | See also: Recent months at Rabbit Flat
Date/Time
CST
Temp
°C
App
Temp
°C
Dew
Point
Rel
Hum
%
Delta-T
°C
Wind Press
QNH
hPa
Press
MSL
hPa
Rain
since 9 am
mm
Dir
 
Spd
km/h
Gust
km/h
Spd
kts
Gust
kts
30/11:30am 34.4 27.4 -3.7 8 17.9 ENE 24 35 13 19 1017.8 - 0.0
30/11:00am 32.9 26.8 -4.3 9 17.1 E 19 33 10 18 1018.1 - 0.0
30/10:30am 31.9 25.8 -7.3 7 17.0 ESE 17 28 9 15 1018.5 - 0.0
30/10:00am 30.9 24.2 -7.8 7 16.5 E 20 32 11 17 1018.6 - 0.0
30/09:30am 29.6 23.0 -7.3 8 15.7 E 20 32 11 17 1018.7 - 0.0
30/09:00am 27.6 21.9 -4.0 12 14.0 E 17 24 9 13 1018.7 1016.4 0.0
30/08:30am 25.0 21.0 0.3 19 11.6 ESE 11 17 6 9 1018.5 - 0.0
30/08:00am 21.4 20.3 5.0 34 8.2 CALM 0 0 0 0 1018.3 - 0.0
30/07:30am 17.9 17.1 6.6 47 5.7 CALM 0 0 0 0 1017.8 - 0.0
30/07:00am 16.2 15.4 6.6 53 4.8 CALM 0 0 0 0 1017.1 - 0.0
30/06:30am 17.0 15.3 6.1 48 5.4 SSE 4 7 2 4 1016.6 - 0.0
30/06:00am 17.0 16.1 7.6 54 4.8 S 2 6 1 3 1016.3 1013.9 0.0
30/05:30am 19.4 16.9 4.5 37 7.3 SSE 7 7 4 4 1016.1 - 0.0
30/05:00am 19.0 16.2 5.0 39 6.9 SSE 9 11 5 6 1016.0 - 0.0
30/04:30am 18.6 15.9 5.5 42 6.5 S 9 9 5 5 1015.9 - 0.0
30/04:00am 18.4 16.2 6.3 45 6.1 S 7 11 4 6 1015.7 - 0.0
30/03:30am 18.9 16.3 5.9 42 6.5 S 9 11 5 6 1015.6 - 0.0
30/03:00am 19.9 17.2 5.5 39 7.2 S 9 13 5 7 1015.9 1013.5 0.0
30/02:30am 19.6 16.8 5.3 39 7.1 S 9 15 5 8 1016.0 - 0.0
30/02:00am 18.9 16.5 7.2 46 6.0 S 9 13 5 7 1016.1 - 0.0
30/01:30am 18.7 17.0 7.5 48 5.8 SSE 6 7 3 4 1016.2 - 0.0
30/01:00am 20.7 18.8 6.7 40 7.2 S 6 7 3 4 1016.5 - 0.0
30/12:30am 20.7 18.9 8.0 44 6.7 SSE 7 7 4 4 1016.7 - 0.0
30/12:00am 20.2 18.5 8.3 46 6.3 SE 7 9 4 5 1016.9 1014.5 0.0
 
Date/Time
CST
Temp
°C
App
Temp
°C
Dew
Point
Rel
Hum
%
Delta-T
°C
Wind Press
QNH
hPa
Press
MSL
hPa
Rain
since 9 am
mm
Dir
 
Spd
km/h
Gust
km/h
Spd
kts
Gust
kts
29/11:30pm 20.6 19.1 8.6 46 6.4 SSE 6 9 3 5 1017.2 - 0.0
29/11:00pm 20.9 20.3 7.3 41 7.1 CALM 0 6 0 3 1017.4 - 0.0
29/10:30pm 22.5 20.7 7.0 36 8.1 SSE 6 9 3 5 1017.5 - 0.0
29/10:00pm 23.3 21.3 7.2 35 8.5 SSE 7 9 4 5 1017.5 - 0.0
29/09:30pm 24.3 22.6 8.2 35 8.7 SSE 7 9 4 5 1017.3 - 0.0
29/09:00pm 25.0 23.3 7.7 33 9.3 SSE 6 9 3 5 1017.1 1014.7 0.0
29/08:30pm 26.4 24.9 8.3 31 9.9 SSE 6 7 3 4 1016.9 - 0.0
29/08:00pm 28.3 26.0 4.9 22 12.2 SSE 6 9 3 5 1016.5 - 0.0
29/07:30pm 29.9 27.8 5.8 22 12.9 SSE 6 9 3 5 1016.2 - 0.0
29/07:00pm 31.5 28.8 3.7 17 14.5 SSE 7 11 4 6 1015.9 - 0.0
29/06:30pm 33.0 29.6 1.8 14 15.9 SE 9 15 5 8 1015.4 - 0.0
29/06:00pm 34.3 29.1 0.1 11 17.1 SE 17 24 9 13 1015.2 1012.8 0.0
29/05:30pm 35.2 29.5 -0.6 10 17.8 SSE 19 26 10 14 1015.0 - 0.0
29/05:00pm 35.4 30.1 -0.5 10 17.9 SE 17 24 9 13 1014.9 - 0.0
29/04:30pm 35.6 31.0 1.4 11 17.6 SE 15 22 8 12 1014.8 - 0.0
29/04:00pm 35.4 30.2 0.0 10 17.8 SSE 17 26 9 14 1014.7 - 0.0
29/03:30pm 36.6 30.4 -0.3 10 18.6 SE 22 35 12 19 1014.8 - 0.0
29/03:00pm 36.9 33.2 0.1 10 18.7 SSE 9 17 5 9 1014.9 1012.5 0.0
29/02:30pm 35.7 30.5 0.3 10 17.9 NE 17 24 9 13 1015.1 - 0.0
29/02:00pm 36.3 31.8 -0.3 10 18.4 E 13 26 7 14 1015.2 - 0.0
29/01:30pm 35.9 31.6 0.8 11 17.9 E 13 24 7 13 1015.9 - 0.0
29/01:00pm 34.2 29.7 -0.2 11 17.1 ENE 13 20 7 11 1016.5 - 0.0
29/12:30pm 33.9 28.9 -1.1 10 17.1 NE 15 22 8 12 1017.0 - 0.0
29/12:00pm 33.9 28.5 -1.6 10 17.2 NE 17 24 9 13 1017.3 1014.9 0.0
29/11:30am 33.0 27.2 -1.3 11 16.6 ENE 19 26 10 14 1017.6 - 0.0
29/11:00am 32.5 26.8 -0.8 12 16.2 ENE 19 28 10 15 1018.0 - 0.0
29/10:30am 31.1 25.2 -1.9 12 15.6 ENE 19 26 10 14 1018.2 - 0.0
29/10:00am 30.2 24.3 -2.5 12 15.2 E 19 28 10 15 1018.4 - 0.0
29/09:30am 28.9 23.4 -2.3 13 14.4 E 17 32 9 17 1018.2 - 0.0
29/09:00am 27.0 22.9 2.3 20 12.2 E 13 19 7 10 1018.1 1015.7 0.0
29/08:30am 26.1 22.7 4.0 24 11.2 ESE 11 17 6 9 1018.0 - 0.0
29/08:00am 24.6 21.6 6.2 30 9.6 SSE 11 15 6 8 1017.5 - 0.0
29/07:30am 24.6 22.6 6.2 30 9.6 SSE 6 9 3 5 1016.9 - 0.0
29/07:00am 23.3 21.0 7.5 36 8.4 SSE 9 11 5 6 1016.5 - 0.0
29/06:30am 23.3 21.0 7.5 36 8.4 SE 9 13 5 7 1016.2 - 0.0
29/06:00am 22.7 21.0 9.8 44 7.1 SSE 9 11 5 6 1015.9 1013.5 0.0
29/05:30am 23.1 21.8 9.9 43 7.3 S 7 11 4 6 1015.4 - 0.0
29/05:00am 23.3 20.6 9.0 40 7.8 S 13 17 7 9 1015.1 - 0.0
29/04:30am 22.3 21.7 11.8 51 6.0 S 6 9 3 5 1014.9 - 0.0
29/04:00am 22.0 21.7 12.6 55 5.4 S 6 7 3 4 1014.9 - 0.0
29/03:30am 22.2 21.8 12.3 53 5.7 SSW 6 7 3 4 1014.7 - 0.0
29/03:00am 22.5 21.9 12.2 52 5.9 SSW 7 9 4 5 1014.9 1012.5 0.0
29/02:30am 23.3 22.7 12.2 49 6.4 S 7 9 4 5 1015.0 - 0.0
29/02:00am 23.4 23.0 12.5 50 6.3 SSW 6 13 3 7 1015.4 - 0.0
29/01:30am 24.1 25.0 13.0 50 6.5 CALM 0 0 0 0 1015.4 - 0.0
29/01:00am 25.1 26.1 13.1 47 7.1 CALM 0 0 0 0 1015.6 - 0.0
29/12:30am 25.8 27.0 13.8 47 7.2 CALM 0 0 0 0 1015.9 - 0.0
29/12:00am 26.5 27.4 12.8 42 8.1 CALM 0 0 0 0 1016.2 1013.8 0.0
 
Date/Time
CST
Temp
°C
App
Temp
°C
Dew
Point
Rel
Hum
%
Delta-T
°C
Wind Press
QNH
hPa
Press
MSL
hPa
Rain
since 9 am
mm
Dir
 
Spd
km/h
Gust
km/h
Spd
kts
Gust
kts
28/11:30pm 26.4 27.6 13.7 45 7.6 CALM 0 0 0 0 1016.4 - 0.0
28/11:00pm 26.5 26.4 13.2 43 7.9 SW 6 6 3 3 1016.5 - 0.0
28/10:30pm 26.5 25.8 12.1 40 8.4 WSW 7 7 4 4 1016.6 - 0.0
28/10:00pm 27.1 26.3 11.1 36 9.2 WSW 6 6 3 3 1016.4 - 0.0
28/09:30pm 27.6 28.3 12.1 38 9.1 CALM 0 0 0 0 1016.3 - 0.0
28/09:00pm 28.3 28.8 11.5 35 9.8 CALM 0 0 0 0 1016.1 1013.7 0.0
28/08:30pm 29.1 28.2 10.5 31 10.7 WNW 6 7 3 4 1015.7 - 0.0
28/08:00pm 29.8 27.3 6.5 23 12.6 N 9 11 5 6 1015.3 - 0.0
28/07:30pm 30.3 28.2 6.8 23 12.8 NE 7 9 4 5 1014.9 - 0.0
28/07:00pm 31.9 29.0 4.9 18 14.4 NE 9 9 5 5 1014.6 - 0.0
28/06:30pm 33.0 29.5 3.4 15 15.5 NNE 11 15 6 8 1014.2 - 0.0
28/06:00pm 33.6 30.3 4.3 16 15.6 ENE 11 15 6 8 1014.1 1011.7 0.0
28/05:30pm 33.9 30.9 3.9 15 15.9 E 9 15 5 8 1013.9 - 0.0
28/05:00pm 34.4 30.9 3.6 14 16.3 NNE 11 17 6 9 1013.7 - 0.0
28/04:30pm 35.2 31.7 3.6 14 16.8 ENE 11 19 6 10 1013.5 - 0.0
28/04:00pm 35.2 30.7 2.0 12 17.2 SE 15 20 8 11 1013.5 - 0.0
28/03:30pm 34.9 30.8 2.1 12 17.0 SE 13 20 7 11 1013.7 - 0.0
28/03:00pm 34.8 30.9 1.4 12 17.1 ESE 11 24 6 13 1014.0 1011.6 0.0
28/02:30pm 34.1 28.8 1.7 13 16.6 ESE 19 28 10 15 1014.4 - 0.0
28/02:00pm 35.2 31.9 2.4 12 17.1 E 9 19 5 10 1014.7 - 0.0
28/01:30pm 34.7 30.0 1.1 12 17.1 ENE 15 24 8 13 1015.2 - 0.0
28/01:00pm 34.5 29.9 1.4 12 16.9 E 15 33 8 18 1015.7 - 0.0
28/12:30pm 33.2 28.2 1.5 13 16.1 ENE 17 30 9 16 1016.4 - 0.0
28/12:00pm 33.1 27.6 0.3 12 16.3 ENE 19 33 10 18 1016.9 1014.5 0.0
28/11:30am 33.0 27.3 0.5 12 16.2 ENE 20 28 11 15 1017.4 - 0.0
28/11:00am 32.1 26.5 1.2 14 15.5 NE 20 30 11 16 1017.7 - 0.0
28/10:30am 30.7 25.1 0.2 14 14.9 E 19 30 10 16 1017.7 - 0.0
28/10:00am 30.2 25.1 1.0 15 14.4 E 17 28 9 15 1018.1 - 0.0
28/09:30am 28.2 22.5 0.4 16 13.4 ENE 20 33 11 18 1018.2 - 0.0
28/09:00am 26.9 22.7 1.8 19 12.3 E 13 22 7 12 1018.0 1015.6 0.0
28/08:30am 25.8 22.0 2.0 21 11.6 ESE 11 19 6 10 1017.8 - 0.0
28/08:00am 24.7 21.9 3.3 25 10.6 SE 7 11 4 6 1017.4 - 0.0
28/07:30am 24.3 20.7 2.9 24 10.5 E 11 19 6 10 1017.0 - 0.0
28/07:00am 24.6 21.0 3.1 24 10.6 E 11 20 6 11 1016.7 - 0.0
28/06:30am 25.2 21.2 2.9 23 11.0 E 13 17 7 9 1016.5 - 0.0
28/06:00am 25.8 21.8 3.1 23 11.3 E 13 22 7 12 1016.2 1013.8 0.0
28/05:30am 25.9 21.9 3.0 22 11.4 E 13 19 7 10 1015.9 - 0.0
28/05:00am 26.0 22.1 3.2 23 11.4 E 13 20 7 11 1015.5 - 0.0
28/04:30am 26.1 22.2 3.4 23 11.4 E 13 20 7 11 1015.1 - 0.0
28/04:00am 26.1 21.9 4.0 24 11.2 ENE 15 22 8 12 1015.1 - 0.0
28/03:30am 26.5 22.7 4.1 23 11.4 E 13 19 7 10 1015.3 - 0.0
28/03:00am 26.8 23.0 4.0 23 11.6 E 13 17 7 9 1015.4 1013.0 0.0
28/02:30am 26.7 23.5 5.1 25 11.2 E 11 15 6 8 1015.9 - 0.0
28/02:00am 26.8 23.7 5.6 25 11.1 E 11 15 6 8 1016.3 - 0.0
28/01:30am 26.8 23.8 5.9 26 11.0 E 11 15 6 8 1016.5 - 0.0
28/01:00am 25.9 24.5 8.8 34 9.4 SE 6 9 3 5 1016.8 - 0.0
28/12:30am 26.3 24.6 8.2 31 9.9 ESE 7 11 4 6 1017.2 - 0.0
28/12:00am 26.3 25.3 10.4 36 9.0 SSE 6 7 3 4 1017.4 1015.0 0.0
 
Date/Time
CST
Temp
°C
App
Temp
°C
Dew
Point
Rel
Hum
%
Delta-T
°C
Wind Press
QNH
hPa
Press
MSL
hPa
Rain
since 9 am
mm
Dir
 
Spd
km/h
Gust
km/h
Spd
kts
Gust
kts
27/11:30pm 26.8 25.1 8.4 31 10.1 SE 7 9 4 5 1017.4 - 0.0
27/11:00pm 27.6 25.6 7.0 27 11.1 ESE 7 11 4 6 1017.6 - 0.0
27/10:30pm 27.9 25.4 6.6 26 11.4 E 9 11 5 6 1017.7 - 0.0
27/10:00pm 27.2 25.4 8.0 29 10.5 SE 7 9 4 5 1017.7 - 0.0
27/09:30pm 26.9 25.7 10.3 35 9.4 ENE 7 9 4 5 1017.6 - 0.0
27/09:00pm 26.7 25.1 8.8 32 9.9 NNE 7 9 4 5 1017.3 1014.9 0.0
27/08:30pm 27.1 25.5 8.9 31 10.1 NNE 7 7 4 4 1017.0 - 0.0
27/08:00pm 27.9 26.8 9.9 32 10.2 NNE 6 7 3 4 1016.6 - 0.0
27/07:30pm 28.7 27.1 8.6 28 11.2 NNE 7 9 4 5 1016.2 - 0.0
27/07:00pm 29.9 27.3 6.1 22 12.8 NE 9 13 5 7 1015.7 - 0.0
27/06:30pm 31.3 27.7 5.0 19 14.0 NE 13 17 7 9 1015.4 - 0.0
27/06:00pm 32.0 27.8 4.0 17 14.7 ENE 15 20 8 11 1015.3 1012.9 0.0
27/05:30pm 32.2 27.6 3.8 16 14.9 NE 17 24 9 13 1015.4 - 0.0
27/05:00pm 32.7 28.0 3.4 15 15.3 NE 17 28 9 15 1015.4 - 0.0
27/04:30pm 32.6 28.5 2.4 14 15.5 ESE 13 20 7 11 1015.4 - 0.0
27/04:00pm 33.0 28.3 3.3 15 15.5 E 17 26 9 14 1015.5 - 0.0
27/03:30pm 33.4 28.7 3.1 15 15.8 NE 17 26 9 14 1015.6 - 0.0
27/03:00pm 33.2 28.3 2.3 14 15.9 ENE 17 28 9 15 1015.9 1013.5 0.0
27/02:30pm 33.0 28.6 2.6 14 15.7 E 15 24 8 13 1016.3 - 0.0
27/02:00pm 32.9 28.7 1.9 14 15.8 E 13 22 7 12 1016.8 - 0.0
27/01:30pm 31.6 26.1 0.8 14 15.3 ESE 19 26 10 14 1017.5 - 0.0
27/01:00pm 31.8 26.7 0.8 14 15.4 ENE 17 28 9 15 1018.1 - 0.0
27/12:30pm 30.7 25.3 1.0 15 14.7 ENE 19 26 10 14 1018.7 - 0.0
27/12:00pm 30.2 24.8 2.2 16 14.1 NE 20 32 11 17 1019.4 1017.0 0.0

Other Formats:

Comma delimited format used in spreadsheet applications
http://www.bom.gov.au/fwo/IDD60801/IDD60801.95322.axf

JavaScript Object Notation format (JSON) in row-major order
http://www.bom.gov.au/fwo/IDD60801/IDD60801.95322.json